createdAt,value
2023-05-05T00:02:01.880Z,16.83
2023-05-05T00:04:31.793Z,16.82
2023-05-05T00:07:01.442Z,16.81
2023-05-05T00:09:31.104Z,16.80
2023-05-05T00:12:00.778Z,16.77
2023-05-05T00:14:30.554Z,16.72
2023-05-05T00:17:04.356Z,16.65
2023-05-05T00:19:34.327Z,16.56
2023-05-05T00:22:03.958Z,16.47
2023-05-05T00:24:33.663Z,16.39
2023-05-05T00:27:03.571Z,16.33
2023-05-05T00:29:33.365Z,16.29
2023-05-05T00:32:05.615Z,16.26
2023-05-05T00:34:35.291Z,16.26
2023-05-05T00:37:05.884Z,16.28
2023-05-05T00:39:35.583Z,16.27
2023-05-05T00:42:05.310Z,16.26
2023-05-05T00:44:39.964Z,16.22
2023-05-05T00:47:12.528Z,16.18
2023-05-05T00:49:42.618Z,16.14
2023-05-05T00:52:12.711Z,16.13
2023-05-05T00:54:42.533Z,16.10
2023-05-05T00:57:12.361Z,16.10
2023-05-05T00:59:42.157Z,16.11
2023-05-05T01:02:14.957Z,16.07
2023-05-05T01:04:44.661Z,16.03
2023-05-05T01:07:18.582Z,15.95
2023-05-05T01:09:53.441Z,15.89
2023-05-05T01:12:33.976Z,15.82
2023-05-05T01:15:07.958Z,15.74
2023-05-05T01:17:41.971Z,15.68
2023-05-05T01:20:18.544Z,15.61
2023-05-05T01:22:50.196Z,15.52
2023-05-05T01:25:46.937Z,15.44
2023-05-05T01:28:27.521Z,15.35
2023-05-05T01:31:12.887Z,15.26
2023-05-05T01:33:49.677Z,15.17
2023-05-05T01:36:26.404Z,15.09
2023-05-05T01:39:00.281Z,15.02
2023-05-05T01:41:33.879Z,14.95
2023-05-05T01:44:05.805Z,14.87
2023-05-05T01:46:36.181Z,14.80
2023-05-05T01:49:08.741Z,14.69
2023-05-05T01:51:39.715Z,14.59
2023-05-05T01:54:10.749Z,14.53
2023-05-05T01:56:42.168Z,14.53
2023-05-05T01:59:12.532Z,14.47
2023-05-05T02:01:44.911Z,14.40
2023-05-05T02:04:18.136Z,14.30
2023-05-05T02:06:51.687Z,14.20
2023-05-05T02:09:22.064Z,14.11
2023-05-05T02:11:51.973Z,14.08
2023-05-05T02:14:22.651Z,14.09
2023-05-05T02:16:53.564Z,14.08
2023-05-05T02:19:41.143Z,14.02
2023-05-05T02:22:12.354Z,13.98
2023-05-05T02:24:42.041Z,14.00
2023-05-05T02:27:13.021Z,14.04
2023-05-05T02:29:49.822Z,14.13
2023-05-05T02:32:21.902Z,14.19
2023-05-05T02:34:56.375Z,14.20
2023-05-05T02:37:27.180Z,14.17
2023-05-05T02:40:03.114Z,14.11
2023-05-05T02:42:38.535Z,14.05
2023-05-05T02:45:15.296Z,14.01
2023-05-05T02:47:48.476Z,13.96
2023-05-05T02:50:21.129Z,13.93
2023-05-05T02:52:59.422Z,13.88
2023-05-05T02:55:29.741Z,13.84
2023-05-05T02:58:03.833Z,13.85
2023-05-05T03:00:41.331Z,13.88
2023-05-05T03:03:16.772Z,13.90
2023-05-05T03:05:55.749Z,13.88
2023-05-05T03:08:31.158Z,13.86
2023-05-05T03:11:03.244Z,13.79
2023-05-05T03:13:34.506Z,13.70
2023-05-05T03:16:06.917Z,13.64
2023-05-05T03:18:37.724Z,13.58
2023-05-05T03:21:10.851Z,13.54
2023-05-05T03:23:43.681Z,13.53
2023-05-05T03:26:21.337Z,13.56
2023-05-05T03:28:51.122Z,13.60
2023-05-05T03:31:33.690Z,13.66
2023-05-05T03:34:04.462Z,13.73
2023-05-05T03:36:42.550Z,13.78
2023-05-05T03:39:15.150Z,13.80
2023-05-05T03:41:44.871Z,13.80
2023-05-05T03:44:16.085Z,13.77
2023-05-05T03:46:45.886Z,13.71
2023-05-05T03:49:17.483Z,13.62
2023-05-05T03:51:51.883Z,13.52
2023-05-05T03:54:21.702Z,13.44
2023-05-05T03:56:51.444Z,13.34
2023-05-05T03:59:21.114Z,13.27
2023-05-05T04:01:50.871Z,13.17
2023-05-05T04:04:20.673Z,13.09
2023-05-05T04:06:53.400Z,13.01
2023-05-05T04:09:23.112Z,12.96
2023-05-05T04:11:52.864Z,12.94
2023-05-05T04:14:22.712Z,12.91
2023-05-05T04:16:52.571Z,12.90
2023-05-05T04:19:22.473Z,12.91
2023-05-05T04:21:54.991Z,12.98
2023-05-05T04:24:25.127Z,13.11
2023-05-05T04:26:57.007Z,13.23
2023-05-05T04:29:27.360Z,13.28
2023-05-05T04:31:57.597Z,13.40
2023-05-05T04:34:27.515Z,13.54
2023-05-05T04:37:00.673Z,13.67
2023-05-05T04:39:30.411Z,13.81
2023-05-05T04:42:00.708Z,13.90
2023-05-05T04:44:30.690Z,13.98
2023-05-05T04:47:00.476Z,14.04
2023-05-05T04:49:32.375Z,14.10
2023-05-05T04:52:04.629Z,14.12
2023-05-05T04:54:34.288Z,14.16
2023-05-05T04:57:04.168Z,14.16
2023-05-05T04:59:33.935Z,14.19
2023-05-05T05:02:03.742Z,14.22
2023-05-05T05:04:33.456Z,14.26
2023-05-05T05:07:05.750Z,14.31
2023-05-05T05:09:35.594Z,14.39
2023-05-05T05:12:06.052Z,14.48
2023-05-05T05:14:39.670Z,14.58
2023-05-05T05:17:09.577Z,14.66
2023-05-05T05:19:39.414Z,14.78
2023-05-05T05:22:12.024Z,14.92
2023-05-05T05:24:43.811Z,15.03
2023-05-05T05:27:14.812Z,15.18
2023-05-05T05:29:48.030Z,15.33
2023-05-05T05:32:18.249Z,15.51
2023-05-05T05:34:48.094Z,15.68
2023-05-05T05:37:21.830Z,15.84
2023-05-05T05:39:54.599Z,16.00
2023-05-05T05:42:26.901Z,16.15
2023-05-05T05:44:58.593Z,16.32
2023-05-05T05:47:29.173Z,16.50
2023-05-05T05:49:59.766Z,16.66
2023-05-05T05:52:32.488Z,16.77
2023-05-05T05:55:02.603Z,16.87
2023-05-05T05:57:32.366Z,16.99
2023-05-05T06:00:02.376Z,17.08
2023-05-05T06:02:41.745Z,17.20
2023-05-05T06:05:15.453Z,17.31
2023-05-05T06:07:49.456Z,17.42
2023-05-05T06:10:27.830Z,17.50
2023-05-05T06:13:03.811Z,17.61
2023-05-05T06:15:35.434Z,17.74
2023-05-05T06:18:07.567Z,17.85
2023-05-05T06:20:37.549Z,17.98
2023-05-05T06:23:10.202Z,18.12
2023-05-05T06:25:44.292Z,18.41
2023-05-05T06:28:14.017Z,18.94
2023-05-05T06:30:43.712Z,19.59
2023-05-05T06:33:13.426Z,20.42
2023-05-05T06:35:43.123Z,21.35
2023-05-05T06:38:15.900Z,22.18
2023-05-05T06:40:45.604Z,22.69
2023-05-05T06:43:15.279Z,23.31
2023-05-05T06:45:49.608Z,23.90
2023-05-05T06:48:19.502Z,24.25
2023-05-05T06:50:49.437Z,24.65
2023-05-05T06:53:21.760Z,25.22
2023-05-05T06:55:51.823Z,25.85
2023-05-05T06:58:21.497Z,26.45
2023-05-05T07:00:51.283Z,26.88
2023-05-05T07:03:21.114Z,27.38
2023-05-05T07:05:50.941Z,28.09
2023-05-05T07:08:23.221Z,28.82
2023-05-05T07:10:52.914Z,29.39
2023-05-05T07:13:22.600Z,29.43
2023-05-05T07:15:52.404Z,29.28
2023-05-05T07:18:22.147Z,29.05
2023-05-05T07:20:51.945Z,28.77
2023-05-05T07:23:24.236Z,28.62
2023-05-05T07:25:53.930Z,28.44
2023-05-05T07:28:23.786Z,28.18
2023-05-05T07:30:53.820Z,27.85
2023-05-05T07:33:23.790Z,27.71
2023-05-05T07:35:53.552Z,27.75
2023-05-05T07:38:26.533Z,27.90
2023-05-05T07:40:56.201Z,28.10
2023-05-05T07:43:25.913Z,28.29
2023-05-05T07:45:55.882Z,28.48
2023-05-05T07:48:25.601Z,28.62
2023-05-05T07:50:55.351Z,28.86
2023-05-05T07:53:27.730Z,29.13
2023-05-05T07:55:57.465Z,29.29
2023-05-05T07:58:27.284Z,29.45
2023-05-05T08:00:56.984Z,29.68
2023-05-05T08:03:27.082Z,30.09
2023-05-05T08:05:57.607Z,30.66
2023-05-05T08:08:29.954Z,31.13
2023-05-05T08:10:59.655Z,31.13
2023-05-05T08:13:30.302Z,30.84
2023-05-05T08:16:00.209Z,30.58
2023-05-05T08:18:30.042Z,30.49
2023-05-05T08:20:59.750Z,30.58
2023-05-05T08:23:32.053Z,30.85
2023-05-05T08:26:02.260Z,31.18
2023-05-05T08:28:32.930Z,31.66
2023-05-05T08:31:02.887Z,32.24
2023-05-05T08:33:32.582Z,32.71
2023-05-05T08:36:02.327Z,32.93
2023-05-05T08:38:34.643Z,32.98
2023-05-05T08:41:04.356Z,33.23
2023-05-05T08:43:35.016Z,33.29
2023-05-05T08:46:05.075Z,33.36
2023-05-05T08:48:36.765Z,33.81
2023-05-05T08:51:08.298Z,34.43
2023-05-05T08:53:47.962Z,34.83
2023-05-05T08:56:18.490Z,34.99
2023-05-05T08:58:49.332Z,35.06
2023-05-05T09:01:19.816Z,35.33
2023-05-05T09:03:49.891Z,35.74
2023-05-05T09:06:20.359Z,35.83
2023-05-05T09:08:52.605Z,35.02
2023-05-05T09:11:23.311Z,33.85
2023-05-05T09:13:53.033Z,32.76
2023-05-05T09:16:22.797Z,32.39
2023-05-05T09:18:52.474Z,32.32
2023-05-05T09:21:24.824Z,32.17
2023-05-05T09:24:15.767Z,32.69
2023-05-05T09:26:46.863Z,32.70
2023-05-05T09:29:21.531Z,32.16
2023-05-05T09:32:08.554Z,31.35
2023-05-05T09:34:38.666Z,30.59
2023-05-05T09:37:08.456Z,29.88
2023-05-05T09:39:56.452Z,29.11
2023-05-05T09:42:26.207Z,29.38
2023-05-05T09:44:57.828Z,30.57
2023-05-05T09:47:37.343Z,31.38
2023-05-05T09:50:08.214Z,31.42
2023-05-05T09:52:38.090Z,31.80
2023-05-05T09:55:12.134Z,32.72
2023-05-05T09:57:41.867Z,33.53
2023-05-05T10:00:12.795Z,34.00
2023-05-05T10:02:42.941Z,33.92
2023-05-05T10:05:15.529Z,32.97
2023-05-05T10:07:46.330Z,32.25
2023-05-05T10:10:19.976Z,31.72
2023-05-05T10:12:50.032Z,30.97
2023-05-05T10:15:19.878Z,30.14
2023-05-05T10:18:06.005Z,29.44
2023-05-05T10:20:38.883Z,28.70
2023-05-05T10:23:09.355Z,28.01
2023-05-05T10:25:45.530Z,27.46
2023-05-05T10:28:22.324Z,27.10
2023-05-05T10:30:54.418Z,26.90
2023-05-05T10:33:31.992Z,26.74
2023-05-05T10:36:05.406Z,26.64
2023-05-05T10:38:35.621Z,26.51
2023-05-05T10:41:08.707Z,26.39
2023-05-05T10:43:39.324Z,26.35
2023-05-05T10:46:09.575Z,26.08
2023-05-05T10:48:42.729Z,25.78
2023-05-05T10:51:35.145Z,25.51
2023-05-05T10:54:13.584Z,25.29
2023-05-05T10:56:46.365Z,25.08
2023-05-05T10:59:54.488Z,24.83
2023-05-05T11:02:26.825Z,24.53
2023-05-05T11:05:23.995Z,24.22
2023-05-05T11:07:54.556Z,23.94
2023-05-05T11:10:24.387Z,23.66
2023-05-05T11:13:23.922Z,23.37
2023-05-05T11:15:55.196Z,23.12
2023-05-05T11:18:43.397Z,22.95
2023-05-05T11:21:21.467Z,22.79
2023-05-05T11:23:52.742Z,22.63
2023-05-05T11:26:52.451Z,22.50
2023-05-05T11:29:24.756Z,22.39
2023-05-05T11:32:18.467Z,22.31
2023-05-05T11:34:51.656Z,22.20
2023-05-05T11:37:25.577Z,22.08
2023-05-05T11:40:06.862Z,21.92
2023-05-05T11:42:36.987Z,21.63
2023-05-05T11:45:24.655Z,21.31
2023-05-05T11:47:55.028Z,20.95
2023-05-05T11:50:24.780Z,20.57
2023-05-05T11:52:54.473Z,20.23
2023-05-05T11:55:25.063Z,19.89
2023-05-05T11:57:54.770Z,19.60
2023-05-05T12:00:36.807Z,19.33
2023-05-05T12:03:07.470Z,19.11
2023-05-05T12:05:37.335Z,18.86
2023-05-05T12:08:07.553Z,18.63
2023-05-05T12:10:37.683Z,18.41
2023-05-05T12:13:07.378Z,18.21
2023-05-05T12:15:39.907Z,18.05
2023-05-05T12:18:20.933Z,17.92
2023-05-05T12:20:51.363Z,17.79
2023-05-05T12:23:21.056Z,17.67
2023-05-05T12:25:50.760Z,17.54
2023-05-05T12:28:20.583Z,17.43
2023-05-05T12:31:01.517Z,17.40
2023-05-05T12:33:31.682Z,17.49
2023-05-05T12:36:01.374Z,17.64
2023-05-05T12:38:31.171Z,17.92
2023-05-05T12:41:01.094Z,18.32
2023-05-05T12:43:32.794Z,18.71
2023-05-05T12:46:10.257Z,19.16
2023-05-05T12:48:41.587Z,19.57
2023-05-05T12:51:21.132Z,19.90
2023-05-05T12:53:51.826Z,20.16
2023-05-05T12:56:35.053Z,20.48
2023-05-05T12:59:05.845Z,20.69
2023-05-05T13:01:39.227Z,20.85
2023-05-05T13:04:11.391Z,21.01
2023-05-05T13:06:41.651Z,21.13
2023-05-05T13:09:11.855Z,21.19
2023-05-05T13:11:42.175Z,21.24
2023-05-05T13:14:11.847Z,21.32
2023-05-05T13:16:44.238Z,21.46
2023-05-05T13:19:13.908Z,21.58
2023-05-05T13:21:43.617Z,21.66
2023-05-05T13:24:26.005Z,21.76
2023-05-05T13:27:01.108Z,21.85
2023-05-05T13:29:31.779Z,21.90
2023-05-05T13:32:04.252Z,21.98
2023-05-05T13:34:34.339Z,22.11
2023-05-05T13:37:04.015Z,22.29
2023-05-05T13:39:33.786Z,22.42
2023-05-05T13:42:03.569Z,22.41
2023-05-05T13:44:33.271Z,22.41
2023-05-05T13:47:05.825Z,22.38
2023-05-05T13:49:35.586Z,22.28
2023-05-05T13:52:05.293Z,22.10
2023-05-05T13:54:34.956Z,22.05
2023-05-05T13:57:05.022Z,22.10
2023-05-05T13:59:34.729Z,22.13
2023-05-05T14:02:07.816Z,22.13
2023-05-05T14:04:37.644Z,22.10
2023-05-05T14:07:07.358Z,22.05
2023-05-05T14:09:37.032Z,21.98
2023-05-05T14:12:07.512Z,21.86
2023-05-05T14:14:37.248Z,21.72
2023-05-05T14:17:09.505Z,21.55
2023-05-05T14:19:39.221Z,21.40
2023-05-05T14:22:08.954Z,21.23
2023-05-05T14:24:38.690Z,21.12
2023-05-05T14:27:08.402Z,21.02
2023-05-05T14:29:38.183Z,20.92
2023-05-05T14:32:10.719Z,20.83
2023-05-05T14:34:40.747Z,20.74
2023-05-05T14:37:10.513Z,20.68
2023-05-05T14:39:40.263Z,20.59
2023-05-05T14:42:09.954Z,20.52
2023-05-05T14:44:39.689Z,20.45
2023-05-05T14:47:12.010Z,20.40
2023-05-05T14:49:41.698Z,20.35
2023-05-05T14:52:11.356Z,20.28
2023-05-05T14:54:41.302Z,20.20
2023-05-05T14:57:11.053Z,20.12
2023-05-05T14:59:40.736Z,20.01
2023-05-05T15:02:13.188Z,19.90
2023-05-05T15:04:43.013Z,19.72
2023-05-05T15:07:12.720Z,19.53
2023-05-05T15:09:42.436Z,19.30
2023-05-05T15:12:12.140Z,19.05
2023-05-05T15:14:42.368Z,18.82
2023-05-05T15:17:14.801Z,18.49
2023-05-05T15:19:44.994Z,17.89
2023-05-05T15:22:14.842Z,17.18
2023-05-05T15:24:44.491Z,16.53
2023-05-05T15:27:14.182Z,15.99
2023-05-05T15:29:43.856Z,15.55
2023-05-05T15:32:16.142Z,15.20
2023-05-05T15:34:47.186Z,14.89
2023-05-05T15:37:18.058Z,14.64
2023-05-05T15:39:47.755Z,14.48
2023-05-05T15:42:17.464Z,14.37
2023-05-05T15:44:47.135Z,14.32
2023-05-05T15:47:19.485Z,14.30
2023-05-05T15:49:49.138Z,14.35
2023-05-05T15:52:19.211Z,14.44
2023-05-05T15:54:48.883Z,14.50
2023-05-05T15:57:19.160Z,14.47
2023-05-05T15:59:48.939Z,14.36
2023-05-05T16:02:21.562Z,14.29
2023-05-05T16:04:51.289Z,14.22
2023-05-05T16:07:20.994Z,14.16
2023-05-05T16:09:50.668Z,14.11
2023-05-05T16:12:21.161Z,14.08
2023-05-05T16:14:50.896Z,14.08
2023-05-05T16:17:23.217Z,14.09
2023-05-05T16:19:52.884Z,14.12
2023-05-05T16:22:23.074Z,14.15
2023-05-05T16:24:52.780Z,14.18
2023-05-05T16:27:22.457Z,14.24
2023-05-05T16:29:53.368Z,14.31
2023-05-05T16:32:25.695Z,14.38
2023-05-05T16:34:55.398Z,14.47
2023-05-05T16:37:25.132Z,14.51
2023-05-05T16:39:54.811Z,14.50
2023-05-05T16:42:24.487Z,14.50
2023-05-05T16:44:54.140Z,14.48
2023-05-05T16:47:26.974Z,14.49
2023-05-05T16:49:56.765Z,14.51
2023-05-05T16:52:26.472Z,14.51
2023-05-05T16:54:56.810Z,14.48
2023-05-05T16:57:27.065Z,14.45
2023-05-05T16:59:58.629Z,14.41
2023-05-05T17:02:30.941Z,14.45
2023-05-05T17:05:00.893Z,14.48
2023-05-05T17:07:30.612Z,14.49
2023-05-05T17:10:00.313Z,14.50
2023-05-05T17:12:29.957Z,14.48
2023-05-05T17:14:59.814Z,14.40
2023-05-05T17:17:32.096Z,14.29
2023-05-05T17:20:03.194Z,14.20
2023-05-05T17:22:33.034Z,14.18
2023-05-05T17:25:02.826Z,14.14
2023-05-05T17:27:32.513Z,14.12
2023-05-05T17:30:02.208Z,14.09
2023-05-05T17:32:34.504Z,14.06
2023-05-05T17:35:04.191Z,14.03
2023-05-05T17:37:34.170Z,13.98
2023-05-05T17:40:03.868Z,13.93
2023-05-05T17:42:33.555Z,13.83
2023-05-05T17:45:03.413Z,13.78
2023-05-05T17:47:36.417Z,13.75
2023-05-05T17:50:06.850Z,13.70
2023-05-05T17:52:36.533Z,13.69
2023-05-05T17:55:07.739Z,13.66
2023-05-05T17:57:37.556Z,13.63
2023-05-05T18:00:09.020Z,13.61
2023-05-05T18:02:47.258Z,13.59
2023-05-05T18:05:17.068Z,13.58
2023-05-05T18:07:46.776Z,13.59
2023-05-05T18:10:16.810Z,13.61
2023-05-05T18:12:46.620Z,13.63
2023-05-05T18:15:16.344Z,13.66
2023-05-05T18:17:48.605Z,13.69
2023-05-05T18:20:18.460Z,13.73
2023-05-05T18:22:48.286Z,13.77
2023-05-05T18:25:19.136Z,13.80
2023-05-05T18:27:48.841Z,13.83
2023-05-05T18:30:19.402Z,13.86
2023-05-05T18:32:51.715Z,13.85
2023-05-05T18:35:21.547Z,13.84
2023-05-05T18:37:51.280Z,13.80
2023-05-05T18:40:21.298Z,13.74
2023-05-05T18:42:51.294Z,13.70
2023-05-05T18:45:20.988Z,13.68
2023-05-05T18:47:53.414Z,13.64
2023-05-05T18:50:23.304Z,13.64
2023-05-05T18:52:52.983Z,13.65
2023-05-05T18:55:23.067Z,13.63
2023-05-05T18:57:53.146Z,13.62
2023-05-05T19:00:23.386Z,13.60
2023-05-05T19:02:55.711Z,13.58
2023-05-05T19:05:25.698Z,13.55
2023-05-05T19:07:55.668Z,13.54
2023-05-05T19:10:25.379Z,13.51
2023-05-05T19:12:55.703Z,13.49
2023-05-05T19:15:26.143Z,13.43
2023-05-05T19:17:58.614Z,13.34
2023-05-05T19:20:30.948Z,13.21
2023-05-05T19:23:03.945Z,13.10
2023-05-05T19:25:33.789Z,12.97
2023-05-05T19:28:03.463Z,12.87
2023-05-05T19:30:33.229Z,12.77
2023-05-05T19:33:05.547Z,12.68
2023-05-05T19:35:35.254Z,12.60
2023-05-05T19:38:04.949Z,12.53
2023-05-05T19:40:34.646Z,12.47
2023-05-05T19:43:04.403Z,12.43
2023-05-05T19:45:34.331Z,12.39
2023-05-05T19:48:06.957Z,12.35
2023-05-05T19:50:36.742Z,12.30
2023-05-05T19:53:06.708Z,12.25
2023-05-05T19:55:36.369Z,12.24
2023-05-05T19:58:06.075Z,12.21
2023-05-05T20:00:35.880Z,12.19
2023-05-05T20:03:09.328Z,12.15
2023-05-05T20:05:39.802Z,12.08
2023-05-05T20:08:09.607Z,11.99
2023-05-05T20:10:39.696Z,11.90
2023-05-05T20:13:09.474Z,11.82
2023-05-05T20:15:39.214Z,11.73
2023-05-05T20:18:11.840Z,11.62
2023-05-05T20:20:41.587Z,11.54
2023-05-05T20:23:11.275Z,11.46
2023-05-05T20:25:41.568Z,11.38
2023-05-05T20:28:11.240Z,11.33
2023-05-05T20:30:40.918Z,11.28
2023-05-05T20:33:13.257Z,11.21
2023-05-05T20:35:43.025Z,11.14
2023-05-05T20:38:12.733Z,11.10
2023-05-05T20:40:43.313Z,11.06
2023-05-05T20:43:13.007Z,11.02
2023-05-05T20:45:43.069Z,10.98
2023-05-05T20:48:15.357Z,10.96
2023-05-05T20:50:45.111Z,10.95
2023-05-05T20:53:16.320Z,10.94
2023-05-05T20:55:46.031Z,10.91
2023-05-05T20:58:15.746Z,10.92
2023-05-05T21:00:45.490Z,10.92
2023-05-05T21:03:17.995Z,10.93
2023-05-05T21:05:47.700Z,10.95
2023-05-05T21:08:17.373Z,10.97
2023-05-05T21:10:47.094Z,11.03
2023-05-05T21:13:16.874Z,11.07
2023-05-05T21:15:46.592Z,11.11
2023-05-05T21:18:19.002Z,11.12
2023-05-05T21:20:48.719Z,11.12
2023-05-05T21:23:18.423Z,11.12
2023-05-05T21:25:48.091Z,11.11
2023-05-05T21:28:17.758Z,11.10
2023-05-05T21:30:59.451Z,11.09
2023-05-05T21:33:39.685Z,11.08
2023-05-05T21:36:09.618Z,11.07
2023-05-05T21:38:39.344Z,11.07
2023-05-05T21:41:09.055Z,11.08
2023-05-05T21:43:38.736Z,11.07
2023-05-05T21:46:08.853Z,11.06
2023-05-05T21:48:41.634Z,11.03
2023-05-05T21:51:11.343Z,11.04
2023-05-05T21:53:41.074Z,11.03
2023-05-05T21:56:10.847Z,11.03
2023-05-05T21:58:41.283Z,11.01
2023-05-05T22:01:11.023Z,11.00
2023-05-05T22:03:44.029Z,10.98
2023-05-05T22:06:14.744Z,10.96
2023-05-05T22:08:44.496Z,10.94
2023-05-05T22:11:14.242Z,10.94
2023-05-05T22:13:44.200Z,10.93
2023-05-05T22:16:14.661Z,10.92
2023-05-05T22:18:47.296Z,10.92
2023-05-05T22:21:17.007Z,10.95
2023-05-05T22:23:46.789Z,10.99
2023-05-05T22:26:16.580Z,11.07
2023-05-05T22:28:46.339Z,11.14
2023-05-05T22:31:16.082Z,11.22
2023-05-05T22:33:48.402Z,11.30
2023-05-05T22:36:18.156Z,11.39
2023-05-05T22:38:47.833Z,11.45
2023-05-05T22:41:17.492Z,11.51
2023-05-05T22:43:47.717Z,11.57
2023-05-05T22:46:17.660Z,11.60
2023-05-05T22:48:49.978Z,11.64
2023-05-05T22:51:19.649Z,11.65
2023-05-05T22:53:49.340Z,11.67
2023-05-05T22:56:19.388Z,11.71
2023-05-05T22:58:49.319Z,11.72
2023-05-05T23:01:19.182Z,11.72
2023-05-05T23:03:51.841Z,11.69
2023-05-05T23:06:21.613Z,11.65
2023-05-05T23:08:51.593Z,11.63
2023-05-05T23:11:21.331Z,11.61
2023-05-05T23:13:50.996Z,11.60
2023-05-05T23:16:20.870Z,11.57
2023-05-05T23:18:53.238Z,11.54
2023-05-05T23:21:22.955Z,11.49
2023-05-05T23:23:52.711Z,11.45
2023-05-05T23:26:22.430Z,11.40
2023-05-05T23:28:52.102Z,11.37
2023-05-05T23:31:22.229Z,11.30
2023-05-05T23:33:54.534Z,11.26
2023-05-05T23:36:24.239Z,11.24
2023-05-05T23:38:53.901Z,11.25
2023-05-05T23:41:23.675Z,11.26
2023-05-05T23:43:53.422Z,11.26
2023-05-05T23:46:23.184Z,11.26
2023-05-05T23:48:55.820Z,11.26
2023-05-05T23:51:25.558Z,11.25
2023-05-05T23:53:55.287Z,11.23
2023-05-05T23:56:24.980Z,11.20
2023-05-05T23:58:55.519Z,11.16
